sensor_id;sensor_type;location;lat;lon;timestamp;pressure;altitude;pressure_sealevel;temperature
49785;BMP280;35679;38.732;-121.358;2023-12-14T00:00:00;101392.34;;;15.37
49785;BMP280;35679;38.732;-121.358;2023-12-14T00:02:51;101402.00;;;15.38
49785;BMP280;35679;38.732;-121.358;2023-12-14T00:05:40;101399.34;;;15.38
49785;BMP280;35679;38.732;-121.358;2023-12-14T00:08:29;101397.50;;;15.39
49785;BMP280;35679;38.732;-121.358;2023-12-14T00:11:18;101402.81;;;15.39
49785;BMP280;35679;38.732;-121.358;2023-12-14T00:14:07;101402.81;;;15.39
49785;BMP280;35679;38.732;-121.358;2023-12-14T00:16:57;101409.13;;;15.38
49785;BMP280;35679;38.732;-121.358;2023-12-14T00:19:47;101402.19;;;15.37
49785;BMP280;35679;38.732;-121.358;2023-12-14T00:22:36;101407.50;;;15.37
49785;BMP280;35679;38.732;-121.358;2023-12-14T00:25:26;101417.28;;;15.36
49785;BMP280;35679;38.732;-121.358;2023-12-14T00:28:15;101414.63;;;15.36
49785;BMP280;35679;38.732;-121.358;2023-12-14T00:31:04;101415.63;;;15.35
49785;BMP280;35679;38.732;-121.358;2023-12-14T00:33:53;101422.78;;;15.35
49785;BMP280;35679;38.732;-121.358;2023-12-14T00:36:42;101421.13;;;15.34
49785;BMP280;35679;38.732;-121.358;2023-12-14T00:39:31;101419.47;;;15.33
49785;BMP280;35679;38.732;-121.358;2023-12-14T00:42:20;101422.13;;;15.33
49785;BMP280;35679;38.732;-121.358;2023-12-14T00:45:09;101418.28;;;15.35
49785;BMP280;35679;38.732;-121.358;2023-12-14T00:47:58;101428.31;;;15.33
49785;BMP280;35679;38.732;-121.358;2023-12-14T00:50:47;101428.31;;;15.33
49785;BMP280;35679;38.732;-121.358;2023-12-14T00:53:36;101441.41;;;15.35
49785;BMP280;35679;38.732;-121.358;2023-12-14T00:56:25;101433.81;;;15.32
49785;BMP280;35679;38.732;-121.358;2023-12-14T00:59:14;101437.47;;;15.31
49785;BMP280;35679;38.732;-121.358;2023-12-14T01:02:04;101442.97;;;15.29
49785;BMP280;35679;38.732;-121.358;2023-12-14T01:04:53;101437.81;;;15.28
49785;BMP280;35679;38.732;-121.358;2023-12-14T01:07:42;101437.81;;;15.28
49785;BMP280;35679;38.732;-121.358;2023-12-14T01:10:31;101438.84;;;15.27
49785;BMP280;35679;38.732;-121.358;2023-12-14T01:13:21;101445.16;;;15.26
49785;BMP280;35679;38.732;-121.358;2023-12-14T01:16:10;101440.84;;;15.25
49785;BMP280;35679;38.732;-121.358;2023-12-14T01:18:59;101444.50;;;15.24
49785;BMP280;35679;38.732;-121.358;2023-12-14T01:21:48;101446.34;;;15.23
49785;BMP280;35679;38.732;-121.358;2023-12-14T01:24:37;101445.50;;;15.23
49785;BMP280;35679;38.732;-121.358;2023-12-14T01:27:26;101447.34;;;15.22
49785;BMP280;35679;38.732;-121.358;2023-12-14T01:30:15;101441.34;;;15.20
49785;BMP280;35679;38.732;-121.358;2023-12-14T01:33:04;101445.84;;;15.20
49785;BMP280;35679;38.732;-121.358;2023-12-14T01:35:54;101445.19;;;15.18
49785;BMP280;35679;38.732;-121.358;2023-12-14T01:38:43;101444.38;;;15.17
49785;BMP280;35679;38.732;-121.358;2023-12-14T01:41:32;101442.69;;;15.16
49785;BMP280;35679;38.732;-121.358;2023-12-14T01:44:21;101457.00;;;15.15
49785;BMP280;35679;38.732;-121.358;2023-12-14T01:47:10;101455.34;;;15.14
49785;BMP280;35679;38.732;-121.358;2023-12-14T01:49:59;101467.81;;;15.14
49785;BMP280;35679;38.732;-121.358;2023-12-14T01:52:48;101470.47;;;15.14
49785;BMP280;35679;38.732;-121.358;2023-12-14T01:55:37;101461.84;;;15.12
49785;BMP280;35679;38.732;-121.358;2023-12-14T01:58:26;101462.69;;;15.12
49785;BMP280;35679;38.732;-121.358;2023-12-14T02:04:24;101469.19;;;15.10
49785;BMP280;35679;38.732;-121.358;2023-12-14T02:07:13;101464.06;;;15.08
49785;BMP280;35679;38.732;-121.358;2023-12-14T02:10:03;101471.19;;;15.08
49785;BMP280;35679;38.732;-121.358;2023-12-14T02:12:52;101472.19;;;15.07
49785;BMP280;35679;38.732;-121.358;2023-12-14T02:15:41;101475.88;;;15.06
49785;BMP280;35679;38.732;-121.358;2023-12-14T02:18:30;101477.84;;;15.04
49785;BMP280;35679;38.732;-121.358;2023-12-14T02:21:19;101471.72;;;15.04
49785;BMP280;35679;38.732;-121.358;2023-12-14T02:24:08;101470.69;;;15.05
49785;BMP280;35679;38.732;-121.358;2023-12-14T02:26:58;101477.03;;;15.04
49785;BMP280;35679;38.732;-121.358;2023-12-14T02:29:49;101477.19;;;15.02
49785;BMP280;35679;38.732;-121.358;2023-12-14T02:32:39;101474.72;;;15.01
49785;BMP280;35679;38.732;-121.358;2023-12-14T02:35:28;101481.88;;;15.00
49785;BMP280;35679;38.732;-121.358;2023-12-14T02:38:17;101479.22;;;15.00
49785;BMP280;35679;38.732;-121.358;2023-12-14T02:41:06;101480.41;;;14.98
49785;BMP280;35679;38.732;-121.358;2023-12-14T02:43:55;101481.41;;;14.97
49785;BMP280;35679;38.732;-121.358;2023-12-14T02:46:44;101472.59;;;14.96
49785;BMP280;35679;38.732;-121.358;2023-12-14T02:49:33;101472.94;;;14.93
49785;BMP280;35679;38.732;-121.358;2023-12-14T02:52:22;101479.09;;;14.94
49785;BMP280;35679;38.732;-121.358;2023-12-14T02:55:11;101475.78;;;14.92
49785;BMP280;35679;38.732;-121.358;2023-12-14T02:58:00;101470.66;;;14.90
49785;BMP280;35679;38.732;-121.358;2023-12-14T03:00:49;101474.13;;;14.91
49785;BMP280;35679;38.732;-121.358;2023-12-14T03:03:38;101478.78;;;14.89
49785;BMP280;35679;38.732;-121.358;2023-12-14T03:06:28;101479.81;;;14.88
49785;BMP280;35679;38.732;-121.358;2023-12-14T03:09:17;101477.31;;;14.86
49785;BMP280;35679;38.732;-121.358;2023-12-14T03:12:07;101473.03;;;14.85
49785;BMP280;35679;38.732;-121.358;2023-12-14T03:14:56;101472.38;;;14.83
49785;BMP280;35679;38.732;-121.358;2023-12-14T03:17:45;101464.56;;;14.82
49785;BMP280;35679;38.732;-121.358;2023-12-14T03:20:34;101467.41;;;14.80
49785;BMP280;35679;38.732;-121.358;2023-12-14T03:23:23;101474.34;;;14.81
49785;BMP280;35679;38.732;-121.358;2023-12-14T03:26:12;101472.06;;;14.78
49785;BMP280;35679;38.732;-121.358;2023-12-14T03:29:02;101469.59;;;14.77
49785;BMP280;35679;38.732;-121.358;2023-12-14T03:31:51;101474.91;;;14.77
49785;BMP280;35679;38.732;-121.358;2023-12-14T03:34:40;101475.06;;;14.75
49785;BMP280;35679;38.732;-121.358;2023-12-14T03:37:29;101475.06;;;14.75
49785;BMP280;35679;38.732;-121.358;2023-12-14T03:40:18;101484.03;;;14.74
49785;BMP280;35679;38.732;-121.358;2023-12-14T03:43:07;101488.69;;;14.72
49785;BMP280;35679;38.732;-121.358;2023-12-14T03:45:56;101492.34;;;14.71
49785;BMP280;35679;38.732;-121.358;2023-12-14T03:48:45;101491.53;;;14.71
49785;BMP280;35679;38.732;-121.358;2023-12-14T03:51:35;101494.38;;;14.69
49785;BMP280;35679;38.732;-121.358;2023-12-14T03:54:24;101497.84;;;14.70
49785;BMP280;35679;38.732;-121.358;2023-12-14T03:57:13;101502.34;;;14.69
49785;BMP280;35679;38.732;-121.358;2023-12-14T04:00:02;101507.00;;;14.67
49785;BMP280;35679;38.732;-121.358;2023-12-14T04:02:51;101503.53;;;14.67
49785;BMP280;35679;38.732;-121.358;2023-12-14T04:05:40;101508.84;;;14.67
49785;BMP280;35679;38.732;-121.358;2023-12-14T04:08:29;101511.63;;;14.65
49785;BMP280;35679;38.732;-121.358;2023-12-14T04:11:18;101518.59;;;14.66
49785;BMP280;35679;38.732;-121.358;2023-12-14T04:14:07;101515.31;;;14.64
49785;BMP280;35679;38.732;-121.358;2023-12-14T04:16:58;101519.78;;;14.64
49785;BMP280;35679;38.732;-121.358;2023-12-14T04:19:47;101518.97;;;14.63
49785;BMP280;35679;38.732;-121.358;2023-12-14T04:22:36;101511.19;;;14.62
49785;BMP280;35679;38.732;-121.358;2023-12-14T04:25:25;101515.66;;;14.61
49785;BMP280;35679;38.732;-121.358;2023-12-14T04:28:14;101512.34;;;14.59
49785;BMP280;35679;38.732;-121.358;2023-12-14T04:31:03;101515.84;;;14.60
49785;BMP280;35679;38.732;-121.358;2023-12-14T04:33:53;101516.00;;;14.58
49785;BMP280;35679;38.732;-121.358;2023-12-14T04:36:42;101520.47;;;14.58
49785;BMP280;35679;38.732;-121.358;2023-12-14T04:39:31;101523.31;;;14.56
49785;BMP280;35679;38.732;-121.358;2023-12-14T04:42:20;101522.66;;;14.54
49785;BMP280;35679;38.732;-121.358;2023-12-14T04:45:09;101521.81;;;14.54
49785;BMP280;35679;38.732;-121.358;2023-12-14T04:47:58;101523.66;;;14.53
49785;BMP280;35679;38.732;-121.358;2023-12-14T04:50:47;101528.31;;;14.51
49785;BMP280;35679;38.732;-121.358;2023-12-14T04:53:37;101523.00;;;14.51
49785;BMP280;35679;38.732;-121.358;2023-12-14T04:56:26;101522.34;;;14.49
49785;BMP280;35679;38.732;-121.358;2023-12-14T04:59:15;101533.81;;;14.50
49785;BMP280;35679;38.732;-121.358;2023-12-14T05:02:04;101544.59;;;14.48
49785;BMP280;35679;38.732;-121.358;2023-12-14T05:04:53;101540.28;;;14.47
49785;BMP280;35679;38.732;-121.358;2023-12-14T05:07:42;101538.63;;;14.46
49785;BMP280;35679;38.732;-121.358;2023-12-14T05:10:31;101548.44;;;14.46
49785;BMP280;35679;38.732;-121.358;2023-12-14T05:13:21;101545.94;;;14.44
49785;BMP280;35679;38.732;-121.358;2023-12-14T05:16:14;101547.75;;;14.44
49785;BMP280;35679;38.732;-121.358;2023-12-14T05:19:03;101547.94;;;14.43
49785;BMP280;35679;38.732;-121.358;2023-12-14T05:21:52;101547.94;;;14.43
49785;BMP280;35679;38.732;-121.358;2023-12-14T05:24:45;101562.22;;;14.42
49785;BMP280;35679;38.732;-121.358;2023-12-14T05:27:34;101565.03;;;14.40
49785;BMP280;35679;38.732;-121.358;2023-12-14T05:30:23;101564.19;;;14.40
49785;BMP280;35679;38.732;-121.358;2023-12-14T05:33:13;101567.03;;;14.38
49785;BMP280;35679;38.732;-121.358;2023-12-14T05:36:02;101570.69;;;14.37
49785;BMP280;35679;38.732;-121.358;2023-12-14T05:38:53;101571.84;;;14.35
49785;BMP280;35679;38.732;-121.358;2023-12-14T05:41:42;101573.50;;;14.36
49785;BMP280;35679;38.732;-121.358;2023-12-14T05:44:31;101574.50;;;14.35
49785;BMP280;35679;38.732;-121.358;2023-12-14T05:47:25;101582.47;;;14.35
49785;BMP280;35679;38.732;-121.358;2023-12-14T05:50:14;101580.16;;;14.32
49785;BMP280;35679;38.732;-121.358;2023-12-14T05:53:03;101588.13;;;14.32
49785;BMP280;35679;38.732;-121.358;2023-12-14T05:55:52;101588.13;;;14.32
49785;BMP280;35679;38.732;-121.358;2023-12-14T05:58:41;101585.66;;;14.30
49785;BMP280;35679;38.732;-121.358;2023-12-14T06:01:30;101582.16;;;14.30
49785;BMP280;35679;38.732;-121.358;2023-12-14T06:04:22;101585.78;;;14.29
49785;BMP280;35679;38.732;-121.358;2023-12-14T06:07:13;101586.66;;;14.29
49785;BMP280;35679;38.732;-121.358;2023-12-14T06:10:02;101586.81;;;14.28
49785;BMP280;35679;38.732;-121.358;2023-12-14T06:12:52;101593.13;;;14.27
49785;BMP280;35679;38.732;-121.358;2023-12-14T06:15:41;101594.94;;;14.26
49785;BMP280;35679;38.732;-121.358;2023-12-14T06:18:30;101601.09;;;14.27
49785;BMP280;35679;38.732;-121.358;2023-12-14T06:21:20;101608.38;;;14.25
49785;BMP280;35679;38.732;-121.358;2023-12-14T06:24:09;101610.22;;;14.24
49785;BMP280;35679;38.732;-121.358;2023-12-14T06:26:58;101609.38;;;14.24
49785;BMP280;35679;38.732;-121.358;2023-12-14T06:29:47;101617.50;;;14.22
49785;BMP280;35679;38.732;-121.358;2023-12-14T06:32:36;101610.72;;;14.20
49785;BMP280;35679;38.732;-121.358;2023-12-14T06:35:26;101617.69;;;14.21
49785;BMP280;35679;38.732;-121.358;2023-12-14T06:38:15;101622.19;;;14.20
49785;BMP280;35679;38.732;-121.358;2023-12-14T06:41:04;101628.47;;;14.19
49785;BMP280;35679;38.732;-121.358;2023-12-14T06:43:53;101639.09;;;14.19
49785;BMP280;35679;38.732;-121.358;2023-12-14T06:46:42;101652.53;;;14.18
49785;BMP280;35679;38.732;-121.358;2023-12-14T06:49:31;101653.34;;;14.18
49785;BMP280;35679;38.732;-121.358;2023-12-14T06:52:21;101642.91;;;14.17
49785;BMP280;35679;38.732;-121.358;2023-12-14T06:55:10;101655.19;;;14.18
49785;BMP280;35679;38.732;-121.358;2023-12-14T06:58:00;101653.53;;;14.17
49785;BMP280;35679;38.732;-121.358;2023-12-14T07:00:49;101652.03;;;14.14
49785;BMP280;35679;38.732;-121.358;2023-12-14T07:03:39;101650.19;;;14.15
49785;BMP280;35679;38.732;-121.358;2023-12-14T07:06:28;101653.84;;;14.14
49785;BMP280;35679;38.732;-121.358;2023-12-14T07:09:17;101658.34;;;14.13
49785;BMP280;35679;38.732;-121.358;2023-12-14T07:12:06;101657.53;;;14.13
49785;BMP280;35679;38.732;-121.358;2023-12-14T07:14:56;101662.16;;;14.11
49785;BMP280;35679;38.732;-121.358;2023-12-14T07:17:45;101657.84;;;14.10
49785;BMP280;35679;38.732;-121.358;2023-12-14T07:20:34;101661.47;;;14.09
49785;BMP280;35679;38.732;-121.358;2023-12-14T07:23:23;101663.28;;;14.08
49785;BMP280;35679;38.732;-121.358;2023-12-14T07:26:12;101659.78;;;14.08
49785;BMP280;35679;38.732;-121.358;2023-12-14T07:29:01;101658.81;;;14.09
49785;BMP280;35679;38.732;-121.358;2023-12-14T07:31:50;101665.09;;;14.08
49785;BMP280;35679;38.732;-121.358;2023-12-14T07:34:40;101662.63;;;14.06
49785;BMP280;35679;38.732;-121.358;2023-12-14T07:37:29;101662.63;;;14.06
49785;BMP280;35679;38.732;-121.358;2023-12-14T07:40:18;101668.91;;;14.05
49785;BMP280;35679;38.732;-121.358;2023-12-14T07:43:07;101676.06;;;14.05
49785;BMP280;35679;38.732;-121.358;2023-12-14T07:45:57;101663.59;;;14.05
49785;BMP280;35679;38.732;-121.358;2023-12-14T07:48:46;101655.81;;;14.04
49785;BMP280;35679;38.732;-121.358;2023-12-14T07:51:35;101655.00;;;14.03
49785;BMP280;35679;38.732;-121.358;2023-12-14T07:54:24;101662.09;;;14.03
49785;BMP280;35679;38.732;-121.358;2023-12-14T07:57:15;101643.72;;;14.01
49785;BMP280;35679;38.732;-121.358;2023-12-14T08:00:04;101646.38;;;14.01
49785;BMP280;35679;38.732;-121.358;2023-12-14T08:02:54;101647.34;;;14.00
49785;BMP280;35679;38.732;-121.358;2023-12-14T08:05:43;101642.88;;;14.01
49785;BMP280;35679;38.732;-121.358;2023-12-14T08:08:32;101644.06;;;13.98
49785;BMP280;35679;38.732;-121.358;2023-12-14T08:11:21;101646.53;;;14.00
49785;BMP280;35679;38.732;-121.358;2023-12-14T08:14:10;101644.06;;;13.98
49785;BMP280;35679;38.732;-121.358;2023-12-14T08:16:59;101649.38;;;13.98
49785;BMP280;35679;38.732;-121.358;2023-12-14T08:19:48;101645.84;;;13.98
49785;BMP280;35679;38.732;-121.358;2023-12-14T08:22:37;101645.03;;;13.97
49785;BMP280;35679;38.732;-121.358;2023-12-14T08:25:32;101631.78;;;13.97
49785;BMP280;35679;38.732;-121.358;2023-12-14T08:28:21;101630.97;;;13.97
49785;BMP280;35679;38.732;-121.358;2023-12-14T08:31:10;101636.28;;;13.97
49785;BMP280;35679;38.732;-121.358;2023-12-14T08:34:00;101630.28;;;13.95
49785;BMP280;35679;38.732;-121.358;2023-12-14T08:36:49;101633.75;;;13.95
49785;BMP280;35679;38.732;-121.358;2023-12-14T08:39:38;101629.47;;;13.94
49785;BMP280;35679;38.732;-121.358;2023-12-14T08:42:27;101632.94;;;13.95
49785;BMP280;35679;38.732;-121.358;2023-12-14T08:45:16;101621.50;;;13.94
49785;BMP280;35679;38.732;-121.358;2023-12-14T08:48:05;101637.44;;;13.94
49785;BMP280;35679;38.732;-121.358;2023-12-14T08:50:55;101642.06;;;13.92
49785;BMP280;35679;38.732;-121.358;2023-12-14T08:53:44;101646.69;;;13.90
49785;BMP280;35679;38.732;-121.358;2023-12-14T08:56:33;101643.91;;;13.92
49785;BMP280;35679;38.732;-121.358;2023-12-14T08:59:22;101651.84;;;13.92
49785;BMP280;35679;38.732;-121.358;2023-12-14T09:02:11;101647.53;;;13.91
49785;BMP280;35679;38.732;-121.358;2023-12-14T09:05:00;101640.56;;;13.90
49785;BMP280;35679;38.732;-121.358;2023-12-14T09:07:49;101643.22;;;13.90
49785;BMP280;35679;38.732;-121.358;2023-12-14T09:10:43;101655.66;;;13.89
49785;BMP280;35679;38.732;-121.358;2023-12-14T09:13:32;101658.16;;;13.91
49785;BMP280;35679;38.732;-121.358;2023-12-14T09:16:22;101649.34;;;13.90
49785;BMP280;35679;38.732;-121.358;2023-12-14T09:19:11;101652.00;;;13.90
49785;BMP280;35679;38.732;-121.358;2023-12-14T09:22:00;101657.31;;;13.90
49785;BMP280;35679;38.732;-121.358;2023-12-14T09:24:50;101662.78;;;13.89
49785;BMP280;35679;38.732;-121.358;2023-12-14T09:27:39;101662.63;;;13.90
49785;BMP280;35679;38.732;-121.358;2023-12-14T09:30:28;101666.28;;;13.89
49785;BMP280;35679;38.732;-121.358;2023-12-14T09:33:17;101668.09;;;13.89
49785;BMP280;35679;38.732;-121.358;2023-12-14T09:36:07;101671.72;;;13.88
49785;BMP280;35679;38.732;-121.358;2023-12-14T09:38:56;101670.91;;;13.87
49785;BMP280;35679;38.732;-121.358;2023-12-14T09:41:45;101660.13;;;13.89
49785;BMP280;35679;38.732;-121.358;2023-12-14T09:44:35;101670.25;;;13.85
49785;BMP280;35679;38.732;-121.358;2023-12-14T09:47:26;101680.84;;;13.85
49785;BMP280;35679;38.732;-121.358;2023-12-14T09:50:15;101682.69;;;13.85
49785;BMP280;35679;38.732;-121.358;2023-12-14T09:53:05;101678.38;;;13.84
49785;BMP280;35679;38.732;-121.358;2023-12-14T09:55:56;101690.66;;;13.85
49785;BMP280;35679;38.732;-121.358;2023-12-14T09:58:45;101694.28;;;13.84
49785;BMP280;35679;38.732;-121.358;2023-12-14T10:01:34;101697.94;;;13.83
49785;BMP280;35679;38.732;-121.358;2023-12-14T10:04:23;101693.78;;;13.80
49785;BMP280;35679;38.732;-121.358;2023-12-14T10:07:12;101700.75;;;13.81
49785;BMP280;35679;38.732;-121.358;2023-12-14T10:10:09;101695.63;;;13.80
49785;BMP280;35679;38.732;-121.358;2023-12-14T10:12:59;101706.88;;;13.82
49785;BMP280;35679;38.732;-121.358;2023-12-14T10:15:48;101700.91;;;13.80
49785;BMP280;35679;38.732;-121.358;2023-12-14T10:18:37;101704.38;;;13.80
49785;BMP280;35679;38.732;-121.358;2023-12-14T10:21:27;101696.78;;;13.77
49785;BMP280;35679;38.732;-121.358;2023-12-14T10:24:17;101698.44;;;13.78
49785;BMP280;35679;38.732;-121.358;2023-12-14T10:27:07;101699.59;;;13.76
49785;BMP280;35679;38.732;-121.358;2023-12-14T10:29:56;101705.72;;;13.76
49785;BMP280;35679;38.732;-121.358;2023-12-14T10:32:48;101705.03;;;13.74
49785;BMP280;35679;38.732;-121.358;2023-12-14T10:35:37;101701.41;;;13.75
49785;BMP280;35679;38.732;-121.358;2023-12-14T10:38:26;101702.25;;;13.76
49785;BMP280;35679;38.732;-121.358;2023-12-14T10:41:17;101709.34;;;13.75
49785;BMP280;35679;38.732;-121.358;2023-12-14T10:44:06;101714.50;;;13.77
49785;BMP280;35679;38.732;-121.358;2023-12-14T10:47:08;101707.56;;;13.76
49785;BMP280;35679;38.732;-121.358;2023-12-14T10:49:58;101709.53;;;13.74
49785;BMP280;35679;38.732;-121.358;2023-12-14T10:52:49;101712.53;;;13.71
49785;BMP280;35679;38.732;-121.358;2023-12-14T10:55:40;101713.34;;;13.72
49785;BMP280;35679;38.732;-121.358;2023-12-14T10:58:44;101715.16;;;13.71
49785;BMP280;35679;38.732;-121.358;2023-12-14T11:01:35;101715.16;;;13.71
49785;BMP280;35679;38.732;-121.358;2023-12-14T11:04:27;101715.16;;;13.71
49785;BMP280;35679;38.732;-121.358;2023-12-14T11:07:16;101714.66;;;13.68
49785;BMP280;35679;38.732;-121.358;2023-12-14T11:10:05;101714.66;;;13.68
49785;BMP280;35679;38.732;-121.358;2023-12-14T11:12:55;101724.44;;;13.67
49785;BMP280;35679;38.732;-121.358;2023-12-14T11:15:49;101728.44;;;13.71
49785;BMP280;35679;38.732;-121.358;2023-12-14T11:18:38;101726.09;;;13.68
49785;BMP280;35679;38.732;-121.358;2023-12-14T11:21:29;101717.78;;;13.63
49785;BMP280;35679;38.732;-121.358;2023-12-14T11:24:18;101712.81;;;13.68
49785;BMP280;35679;38.732;-121.358;2023-12-14T11:27:08;101722.94;;;13.65
49785;BMP280;35679;38.732;-121.358;2023-12-14T11:29:57;101713.97;;;13.66
49785;BMP280;35679;38.732;-121.358;2023-12-14T11:32:47;101727.41;;;13.64
49785;BMP280;35679;38.732;-121.358;2023-12-14T11:35:36;101721.44;;;13.62
49785;BMP280;35679;38.732;-121.358;2023-12-14T11:38:25;101734.69;;;13.62
49785;BMP280;35679;38.732;-121.358;2023-12-14T11:41:14;101735.03;;;13.59
49785;BMP280;35679;38.732;-121.358;2023-12-14T11:44:03;101732.38;;;13.59
49785;BMP280;35679;38.732;-121.358;2023-12-14T11:46:52;101724.72;;;13.56
49785;BMP280;35679;38.732;-121.358;2023-12-14T11:49:41;101720.09;;;13.58
49785;BMP280;35679;38.732;-121.358;2023-12-14T11:52:30;101718.78;;;13.54
49785;BMP280;35679;38.732;-121.358;2023-12-14T11:55:19;101725.75;;;13.55
49785;BMP280;35679;38.732;-121.358;2023-12-14T11:58:13;101718.59;;;13.56
49785;BMP280;35679;38.732;-121.358;2023-12-14T12:01:17;101727.53;;;13.55
49785;BMP280;35679;38.732;-121.358;2023-12-14T12:04:09;101724.06;;;13.54
49785;BMP280;35679;38.732;-121.358;2023-12-14T12:07:05;101735.50;;;13.55
49785;BMP280;35679;38.732;-121.358;2023-12-14T12:09:57;101719.41;;;13.48
49785;BMP280;35679;38.732;-121.358;2023-12-14T12:12:46;101718.25;;;13.51
49785;BMP280;35679;38.732;-121.358;2023-12-14T12:15:35;101729.69;;;13.51
49785;BMP280;35679;38.732;-121.358;2023-12-14T12:18:25;101731.69;;;13.49
49785;BMP280;35679;38.732;-121.358;2023-12-14T12:21:14;101735.31;;;13.48
49785;BMP280;35679;38.732;-121.358;2023-12-14T12:24:03;101742.59;;;13.46
49785;BMP280;35679;38.732;-121.358;2023-12-14T12:27:04;101744.44;;;13.46
49785;BMP280;35679;38.732;-121.358;2023-12-14T12:29:53;101748.06;;;13.45
49785;BMP280;35679;38.732;-121.358;2023-12-14T12:32:43;101740.28;;;13.43
49785;BMP280;35679;38.732;-121.358;2023-12-14T12:35:32;101749.91;;;13.44
49785;BMP280;35679;38.732;-121.358;2023-12-14T12:38:22;101758.66;;;13.45
49785;BMP280;35679;38.732;-121.358;2023-12-14T12:41:11;101759.66;;;13.44
49785;BMP280;35679;38.732;-121.358;2023-12-14T12:44:00;101765.13;;;13.42
49785;BMP280;35679;38.732;-121.358;2023-12-14T12:46:54;101772.44;;;13.40
49785;BMP280;35679;38.732;-121.358;2023-12-14T12:49:54;101778.53;;;13.41
49785;BMP280;35679;38.732;-121.358;2023-12-14T12:52:44;101778.72;;;13.39
49785;BMP280;35679;38.732;-121.358;2023-12-14T12:55:37;101775.38;;;13.37
49785;BMP280;35679;38.732;-121.358;2023-12-14T12:58:26;101774.69;;;13.35
49785;BMP280;35679;38.732;-121.358;2023-12-14T13:01:15;101770.41;;;13.34
49785;BMP280;35679;38.732;-121.358;2023-12-14T13:04:04;101773.88;;;13.35
49785;BMP280;35679;38.732;-121.358;2023-12-14T13:07:06;101767.75;;;13.34
49785;BMP280;35679;38.732;-121.358;2023-12-14T13:09:55;101765.91;;;13.35
49785;BMP280;35679;38.732;-121.358;2023-12-14T13:12:44;101774.03;;;13.33
49785;BMP280;35679;38.732;-121.358;2023-12-14T13:15:33;101775.03;;;13.32
49785;BMP280;35679;38.732;-121.358;2023-12-14T13:18:23;101781.16;;;13.33
49785;BMP280;35679;38.732;-121.358;2023-12-14T13:21:12;101777.69;;;13.32
49785;BMP280;35679;38.732;-121.358;2023-12-14T13:24:02;101784.28;;;13.28
49785;BMP280;35679;38.732;-121.358;2023-12-14T13:26:51;101795.53;;;13.30
49785;BMP280;35679;38.732;-121.358;2023-12-14T13:29:40;101787.94;;;13.27
49785;BMP280;35679;38.732;-121.358;2023-12-14T13:32:29;101790.75;;;13.26
49785;BMP280;35679;38.732;-121.358;2023-12-14T13:35:19;101780.13;;;13.26
49785;BMP280;35679;38.732;-121.358;2023-12-14T13:38:08;101781.13;;;13.25
49785;BMP280;35679;38.732;-121.358;2023-12-14T13:40:57;101783.78;;;13.25
49785;BMP280;35679;38.732;-121.358;2023-12-14T13:43:46;101790.91;;;13.24
49785;BMP280;35679;38.732;-121.358;2023-12-14T13:46:35;101790.06;;;13.24
49785;BMP280;35679;38.732;-121.358;2023-12-14T13:49:25;101798.84;;;13.24
49785;BMP280;35679;38.732;-121.358;2023-12-14T13:52:14;101793.84;;;13.21
49785;BMP280;35679;38.732;-121.358;2023-12-14T13:55:03;101786.22;;;13.18
49785;BMP280;35679;38.732;-121.358;2023-12-14T13:57:52;101793.19;;;13.19
49785;BMP280;35679;38.732;-121.358;2023-12-14T14:00:43;101790.69;;;13.18
49785;BMP280;35679;38.732;-121.358;2023-12-14T14:03:33;101797.66;;;13.19
49785;BMP280;35679;38.732;-121.358;2023-12-14T14:06:22;101797.66;;;13.19
49785;BMP280;35679;38.732;-121.358;2023-12-14T14:09:12;101804.09;;;13.16
49785;BMP280;35679;38.732;-121.358;2023-12-14T14:12:01;101817.34;;;13.16
49785;BMP280;35679;38.732;-121.358;2023-12-14T14:14:50;101811.22;;;13.16
49785;BMP280;35679;38.732;-121.358;2023-12-14T14:17:39;101814.88;;;13.15
49785;BMP280;35679;38.732;-121.358;2023-12-14T14:20:28;101818.34;;;13.15
49785;BMP280;35679;38.732;-121.358;2023-12-14T14:23:17;101821.97;;;13.14
49785;BMP280;35679;38.732;-121.358;2023-12-14T14:26:07;101822.97;;;13.13
49785;BMP280;35679;38.732;-121.358;2023-12-14T14:28:56;101824.94;;;13.11
49785;BMP280;35679;38.732;-121.358;2023-12-14T14:31:50;101821.78;;;13.08
49785;BMP280;35679;38.732;-121.358;2023-12-14T14:34:39;101821.31;;;13.12
49785;BMP280;35679;38.732;-121.358;2023-12-14T14:37:28;101828.56;;;13.10
49785;BMP280;35679;38.732;-121.358;2023-12-14T14:40:20;101831.22;;;13.10
49785;BMP280;35679;38.732;-121.358;2023-12-14T14:43:10;101834.84;;;13.09
49785;BMP280;35679;38.732;-121.358;2023-12-14T14:46:00;101832.38;;;13.08
49785;BMP280;35679;38.732;-121.358;2023-12-14T14:48:49;101834.19;;;13.08
49785;BMP280;35679;38.732;-121.358;2023-12-14T14:51:38;101836.00;;;13.07
49785;BMP280;35679;38.732;-121.358;2023-12-14T14:54:27;101837.81;;;13.07
49785;BMP280;35679;38.732;-121.358;2023-12-14T14:57:16;101844.09;;;13.06
49785;BMP280;35679;38.732;-121.358;2023-12-14T15:00:05;101846.09;;;13.04
49785;BMP280;35679;38.732;-121.358;2023-12-14T15:02:54;101849.72;;;13.03
49785;BMP280;35679;38.732;-121.358;2023-12-14T15:05:43;101847.19;;;12.76
49785;BMP280;35679;38.732;-121.358;2023-12-14T15:08:32;101858.31;;;12.44
49785;BMP280;35679;38.732;-121.358;2023-12-14T15:11:21;101851.81;;;12.56
49785;BMP280;35679;38.732;-121.358;2023-12-14T15:14:10;101864.81;;;12.67
49785;BMP280;35679;38.732;-121.358;2023-12-14T15:16:59;101856.41;;;12.72
49785;BMP280;35679;38.732;-121.358;2023-12-14T15:19:49;101866.69;;;12.75
49785;BMP280;35679;38.732;-121.358;2023-12-14T15:22:41;101859.59;;;12.75
49785;BMP280;35679;38.732;-121.358;2023-12-14T15:25:30;101865.88;;;12.74